createdAt,value
2018-12-27T00:00:35.512Z,26.6
2018-12-27T00:01:24.149Z,26.9
2018-12-27T00:02:14.822Z,27.2
2018-12-27T00:03:05.102Z,27.5
2018-12-27T00:03:54.170Z,27.7
2018-12-27T00:04:44.147Z,27.9
2018-12-27T00:05:33.637Z,28.2
2018-12-27T00:06:24.287Z,28.5
2018-12-27T00:07:14.314Z,28.7
2018-12-27T00:08:07.397Z,28.9
2018-12-27T00:08:54.431Z,29.1
2018-12-27T00:09:44.758Z,29.3
2018-12-27T00:10:36.094Z,29.4
2018-12-27T00:11:24.022Z,29.6
2018-12-27T00:12:15.499Z,29.8
2018-12-27T00:13:05.084Z,29.9
2018-12-27T00:13:55.689Z,30.1
2018-12-27T00:14:45.639Z,30.2
2018-12-27T00:33:08.328Z,26
2018-12-27T00:33:50.195Z,26.3
2018-12-27T00:34:39.270Z,26.4
2018-12-27T00:35:30.138Z,26.8
2018-12-27T00:36:20.500Z,27.1
2018-12-27T00:37:10.638Z,27.4
2018-12-27T00:37:59.267Z,27.7
2018-12-27T00:38:51.499Z,27.9
2018-12-27T00:39:39.879Z,28.2
2018-12-27T00:40:29.981Z,28.4
2018-12-27T00:41:20.536Z,28.7
2018-12-27T00:42:10.324Z,28.9
2018-12-27T00:43:01.910Z,29.1
2018-12-27T00:43:50.119Z,29.3
2018-12-27T00:44:40.010Z,29.4
2018-12-27T00:45:30.429Z,29.6
2018-12-27T00:46:18.747Z,29.8
2018-12-27T00:47:10.142Z,29.8
2018-12-27T00:48:00.175Z,30
2018-12-27T00:48:50.522Z,30.1
2018-12-27T00:49:41.180Z,30.3
2018-12-27T00:50:30.670Z,30.4
2018-12-27T00:51:20.649Z,30.5
2018-12-27T00:52:11.002Z,30.6
2018-12-27T00:53:00.510Z,30.7
2018-12-27T00:53:51.097Z,30.6
2018-12-27T00:54:40.635Z,30.4
2018-12-27T00:55:31.251Z,30.3
2018-12-27T00:56:20.251Z,30.1
2018-12-27T00:57:11.446Z,29.9
2018-12-27T00:58:01.329Z,29.8
2018-12-27T00:58:51.962Z,29.6
2018-12-27T00:59:41.419Z,29.5
2018-12-27T01:00:30.631Z,29.3
2018-12-27T01:01:21.784Z,29.2
2018-12-27T01:02:10.674Z,29
2018-12-27T01:03:01.246Z,27.8
2018-12-27T01:03:51.914Z,27
2018-12-27T01:04:41.684Z,26.8
2018-12-27T01:05:31.076Z,26.4
2018-12-27T01:06:21.401Z,26.3
2018-12-27T01:07:11.239Z,26
2018-12-27T01:08:02.106Z,26
2018-12-27T01:08:52.453Z,26.3
2018-12-27T01:09:57.448Z,26.5
2018-12-27T01:10:32.814Z,26.9
2018-12-27T01:11:22.326Z,27.2
2018-12-27T01:12:12.370Z,27.4
2018-12-27T01:13:02.181Z,27.8
2018-12-27T01:13:52.081Z,28
2018-12-27T01:14:42.251Z,28.3
2018-12-27T01:15:32.038Z,28.5
2018-12-27T01:16:23.015Z,28.8
2018-12-27T01:17:11.990Z,28.9
2018-12-27T01:18:01.813Z,29.1
2018-12-27T01:18:52.592Z,29.3
2018-12-27T01:19:41.048Z,29.4
2018-12-27T01:20:33.020Z,29.6
2018-12-27T01:21:23.102Z,29.8
2018-12-27T01:22:12.605Z,29.9
2018-12-27T01:23:02.685Z,30
2018-12-27T01:23:52.700Z,30.1
2018-12-27T01:24:41.765Z,30.3
2018-12-27T01:25:32.755Z,30.4
2018-12-27T01:26:23.884Z,30.5
2018-12-27T01:27:12.932Z,30.6
2018-12-27T01:28:03.272Z,30.7
2018-12-27T01:28:52.056Z,30.6
2018-12-27T01:29:43.933Z,30.5
2018-12-27T01:30:32.129Z,30.3
2018-12-27T01:31:24.000Z,30.2
2018-12-27T01:32:13.006Z,30
2018-12-27T01:33:04.166Z,29.9
2018-12-27T01:33:54.797Z,29.7
2018-12-27T01:34:43.441Z,29.6
2018-12-27T01:35:34.321Z,29.4
2018-12-27T01:36:23.868Z,29.3
2018-12-27T01:37:13.853Z,29.1
2018-12-27T01:38:03.024Z,28.1
2018-12-27T01:38:54.521Z,27.4
2018-12-27T01:39:43.789Z,26.9
2018-12-27T01:40:34.068Z,26.6
2018-12-27T01:41:24.136Z,26.4
2018-12-27T01:42:14.436Z,26.3
2018-12-27T01:43:04.232Z,26
2018-12-27T01:43:55.128Z,26.1
2018-12-27T01:44:44.326Z,26.3
2018-12-27T01:45:33.843Z,26.6
2018-12-27T01:46:24.968Z,26.9
2018-12-27T01:47:14.840Z,27.3
2018-12-27T01:48:04.301Z,27.5
2018-12-27T01:49:45.490Z,28.1
2018-12-27T01:50:35.341Z,28.3
2018-12-27T01:51:25.328Z,28.2
2018-12-27T01:53:04.939Z,27.1
2018-12-27T01:53:55.330Z,26.6
2018-12-27T01:54:45.574Z,26.5
2018-12-27T01:55:35.873Z,26.7
2018-12-27T01:56:25.689Z,27
2018-12-27T01:57:14.763Z,27.3
2018-12-27T01:58:05.230Z,27.6
2018-12-27T01:58:55.363Z,27.8
2018-12-27T01:59:45.085Z,28
2018-12-27T02:00:34.593Z,28.3
2018-12-27T02:01:25.740Z,28.5
2018-12-27T02:02:15.805Z,28.8
2018-12-27T02:03:05.033Z,28.9
2018-12-27T02:03:56.423Z,29.1
2018-12-27T02:04:45.750Z,29.3
2018-12-27T02:05:36.282Z,29.5
2018-12-27T02:06:26.095Z,29.7
2018-12-27T02:07:16.400Z,29.8
2018-12-27T02:08:06.201Z,29.9
2018-12-27T02:08:55.662Z,30.1
2018-12-27T02:09:45.849Z,30.3
2018-12-27T02:10:36.990Z,30.3
2018-12-27T02:11:26.119Z,30.4
2018-12-27T02:12:16.819Z,30.6
2018-12-27T02:13:06.824Z,30.7
2018-12-27T02:13:56.352Z,30.6
2018-12-27T02:14:46.454Z,30.4
2018-12-27T02:15:36.441Z,30.3
2018-12-27T02:16:26.512Z,30.1
2018-12-27T02:17:16.609Z,29.9
2018-12-27T02:18:07.501Z,29.8
2018-12-27T02:18:57.546Z,29.6
2018-12-27T02:19:46.723Z,29.4
2018-12-27T02:20:37.079Z,29.3
2018-12-27T02:21:27.946Z,29.2
2018-12-27T02:22:16.951Z,28.9
2018-12-27T02:23:07.233Z,27.7
2018-12-27T02:23:56.186Z,27.1
2018-12-27T02:24:47.356Z,26.8
2018-12-27T02:25:36.678Z,26.5
2018-12-27T02:26:28.548Z,26.3
2018-12-27T02:27:18.105Z,26
2018-12-27T02:28:07.310Z,26
2018-12-27T02:28:56.821Z,26.2
2018-12-27T02:29:48.229Z,26.4
2018-12-27T02:30:37.246Z,26.8
2018-12-27T02:31:27.663Z,27.1
2018-12-27T02:32:17.968Z,27.4
2018-12-27T02:33:07.166Z,27.7
2018-12-27T02:33:57.993Z,28
2018-12-27T02:34:48.331Z,28.3
2018-12-27T02:35:38.745Z,28.5
2018-12-27T02:36:28.459Z,28.8
2018-12-27T02:37:17.738Z,28.9
2018-12-27T02:38:08.365Z,29.1
2018-12-27T02:38:58.342Z,29.3
2018-12-27T02:39:49.625Z,29.4
2018-12-27T02:40:39.022Z,29.6
2018-12-27T02:41:28.283Z,29.8
2018-12-27T02:42:18.717Z,29.9
2018-12-27T02:43:08.359Z,30
2018-12-27T02:43:58.745Z,30.1
2018-12-27T02:44:47.730Z,30.3
2018-12-27T02:45:39.074Z,30.4
2018-12-27T02:46:28.079Z,30.5
2018-12-27T02:47:19.168Z,30.6
2018-12-27T02:48:09.629Z,30.7
2018-12-27T02:48:59.037Z,30.6
2018-12-27T02:49:48.305Z,30.4
2018-12-27T02:50:38.919Z,30.3
2018-12-27T02:51:28.142Z,30.1
2018-12-27T02:52:18.958Z,29.9
2018-12-27T02:53:08.456Z,29.8
2018-12-27T02:53:59.098Z,29.6
2018-12-27T02:54:48.585Z,29.5
2018-12-27T02:55:39.499Z,29.3
2018-12-27T02:56:29.544Z,29.1
2018-12-27T02:57:20.470Z,29
2018-12-27T02:58:10.008Z,27.9
2018-12-27T02:58:59.171Z,27.2
2018-12-27T02:59:49.583Z,26.8
2018-12-27T03:00:39.087Z,26.4
2018-12-27T03:01:28.071Z,26.3
2018-12-27T03:02:20.478Z,26
2018-12-27T03:03:10.851Z,26
2018-12-27T03:03:59.809Z,26.2
2018-12-27T03:04:49.293Z,26.4
2018-12-27T03:05:40.539Z,26.8
2018-12-27T03:06:29.408Z,27.1
2018-12-27T03:07:20.847Z,27.4
2018-12-27T03:08:09.568Z,27.7
2018-12-27T03:08:59.623Z,27.9
2018-12-27T03:09:50.637Z,28.2
2018-12-27T03:10:41.052Z,28.4
2018-12-27T03:11:29.481Z,28.7
2018-12-27T03:12:20.694Z,28.9
2018-12-27T03:13:09.073Z,29.1
2018-12-27T03:13:59.411Z,29.3
2018-12-27T03:14:51.188Z,29.4
2018-12-27T03:15:41.225Z,29.6
2018-12-27T03:16:30.946Z,29.7
2018-12-27T03:17:21.128Z,29.8
2018-12-27T03:18:11.388Z,29.9
2018-12-27T03:19:00.317Z,30.1
2018-12-27T03:19:50.966Z,30.2
2018-12-27T03:20:40.643Z,30.3
2018-12-27T03:21:30.548Z,30.4
2018-12-27T03:22:21.141Z,30.6
2018-12-27T03:23:11.229Z,30.7
2018-12-27T03:24:00.915Z,30.6
2018-12-27T03:24:51.300Z,30.5
2018-12-27T03:25:40.121Z,30.4
2018-12-27T03:26:31.795Z,30.3
2018-12-27T03:27:20.778Z,30.1
2018-12-27T03:28:10.545Z,29.9
2018-12-27T03:29:00.613Z,29.8
2018-12-27T03:29:51.182Z,29.6
2018-12-27T03:30:41.099Z,29.4
2018-12-27T03:31:31.371Z,29.3
2018-12-27T03:32:21.817Z,29.1
2018-12-27T03:33:11.782Z,28.4
2018-12-27T03:34:01.616Z,27.5
2018-12-27T03:34:51.765Z,26.9
2018-12-27T03:35:41.572Z,26.6
2018-12-27T03:36:30.474Z,26.4
2018-12-27T03:37:21.993Z,26.3
2018-12-27T03:38:12.044Z,26
2018-12-27T03:39:02.192Z,26.1
2018-12-27T03:39:51.603Z,26.3
2018-12-27T03:40:41.875Z,26.6
2018-12-27T03:41:32.437Z,26.9
2018-12-27T03:42:20.697Z,27.2
2018-12-27T03:43:12.377Z,27.4
2018-12-27T03:44:00.574Z,27.8
2018-12-27T03:44:51.931Z,28
2018-12-27T03:45:42.009Z,28.3
2018-12-27T03:46:31.189Z,28.2
2018-12-27T03:47:22.349Z,28
2018-12-27T03:48:12.747Z,27.3
2018-12-27T03:49:03.506Z,26.8
2018-12-27T03:49:52.506Z,26.6
2018-12-27T03:50:42.289Z,26.8
2018-12-27T03:51:31.831Z,27
2018-12-27T03:52:22.561Z,27.3
2018-12-27T03:53:12.747Z,27.6
2018-12-27T03:54:02.880Z,27.8
2018-12-27T03:54:53.118Z,27.9
2018-12-27T03:55:42.263Z,28.2
2018-12-27T03:56:33.009Z,28.4
2018-12-27T03:57:22.771Z,28.7
2018-12-27T03:58:13.271Z,28.9
2018-12-27T03:59:02.319Z,29.1
2018-12-27T03:59:53.327Z,29.2
2018-12-27T04:00:43.518Z,29.4
2018-12-27T04:01:33.866Z,29.5
2018-12-27T04:02:23.143Z,29.7
2018-12-27T04:03:13.608Z,29.8
2018-12-27T04:04:09.714Z,29.9
2018-12-27T04:04:54.403Z,30.1
2018-12-27T04:05:44.074Z,30.2
2018-12-27T04:06:33.606Z,30.3
2018-12-27T04:07:24.167Z,30.4
2018-12-27T04:08:14.023Z,30.5
2018-12-27T04:09:03.466Z,30.6
2018-12-27T04:09:54.737Z,30.7
2018-12-27T04:10:44.469Z,30.6
2018-12-27T04:11:34.786Z,30.4
2018-12-27T04:12:24.855Z,30.3
2018-12-27T04:13:15.187Z,30.1
2018-12-27T04:14:03.859Z,29.9
2018-12-27T04:14:54.678Z,29.8
2018-12-27T04:15:45.015Z,29.6
2018-12-27T04:16:35.118Z,29.4
2018-12-27T04:17:24.961Z,29.3
2018-12-27T04:18:14.900Z,29.1
2018-12-27T04:19:05.202Z,28.3
2018-12-27T04:19:55.040Z,27.4
2018-12-27T04:20:44.978Z,26.9
2018-12-27T04:21:34.880Z,26.6
2018-12-27T04:22:24.776Z,26.4
2018-12-27T04:23:14.287Z,26.3
2018-12-27T04:24:05.355Z,26
2018-12-27T04:25:25.092Z,26.1
2018-12-27T04:25:45.462Z,26.4
2018-12-27T04:26:34.800Z,26.6
2018-12-27T04:27:24.683Z,26.9
2018-12-27T04:28:14.548Z,27.2
2018-12-27T04:29:04.663Z,27.4
2018-12-27T04:29:54.484Z,27.8
2018-12-27T04:30:45.255Z,28
2018-12-27T04:31:35.782Z,28.3
2018-12-27T04:32:25.890Z,28.5
2018-12-27T04:33:16.152Z,28.7
2018-12-27T04:34:14.233Z,28.9
2018-12-27T04:34:56.708Z,29.1
2018-12-27T04:35:46.154Z,29.3
2018-12-27T04:36:37.058Z,29.4
2018-12-27T04:37:26.214Z,29.5
2018-12-27T04:38:15.407Z,29.7
2018-12-27T04:39:05.440Z,29.8
2018-12-27T04:39:56.086Z,29.9
2018-12-27T04:40:47.290Z,30.1
2018-12-27T04:41:36.875Z,30.2
2018-12-27T04:42:27.424Z,30.3
2018-12-27T04:43:17.142Z,30.4
2018-12-27T04:44:07.278Z,30.5
2018-12-27T04:44:56.422Z,30.6
2018-12-27T05:02:16.055Z,26.3
2018-12-27T05:03:06.068Z,26.7
2018-12-27T05:03:56.118Z,27
2018-12-27T05:04:45.554Z,27.3
2018-12-27T05:05:36.535Z,27.6
2018-12-27T05:07:15.777Z,28.1
2018-12-27T05:08:07.199Z,28.3
2018-12-27T05:08:56.540Z,28.6
2018-12-27T05:09:45.006Z,28.8
2018-12-27T05:10:36.282Z,28.9
2018-12-27T05:11:27.017Z,29.1
2018-12-27T05:12:15.575Z,29.3
2018-12-27T05:13:06.554Z,29.4
2018-12-27T05:13:58.179Z,29.6
2018-12-27T05:14:46.509Z,29.7
2018-12-27T05:15:36.879Z,29.8
2018-12-27T05:16:25.786Z,29.9
2018-12-27T05:17:16.726Z,30.1
2018-12-27T05:18:07.032Z,30.2
2018-12-27T05:18:57.230Z,30.3
2018-12-27T05:19:46.566Z,30.4
2018-12-27T05:20:37.231Z,30.5
2018-12-27T05:21:26.228Z,30.5
2018-12-27T05:22:16.166Z,30.2
2018-12-27T05:23:07.398Z,29.9
2018-12-27T05:23:56.126Z,29.2
2018-12-27T05:24:45.816Z,28.6
2018-12-27T05:25:36.988Z,28.3
2018-12-27T05:26:26.199Z,28.1
2018-12-27T05:27:17.488Z,28.3
2018-12-27T05:28:07.016Z,28.4
2018-12-27T05:28:57.572Z,28.6
2018-12-27T05:29:46.648Z,28.8
2018-12-27T05:30:36.545Z,29
2018-12-27T05:31:27.075Z,29.2
2018-12-27T05:32:17.903Z,29.4
2018-12-27T05:33:07.286Z,29.6
2018-12-27T05:33:58.405Z,29.7
2018-12-27T05:34:47.968Z,29.9
2018-12-27T05:35:38.443Z,30
2018-12-27T05:36:27.472Z,30.1
2018-12-27T05:37:20.140Z,30.3
2018-12-27T05:38:07.333Z,30.4
2018-12-27T05:38:58.110Z,30.4
2018-12-27T05:39:48.457Z,30.6
2018-12-27T05:40:37.937Z,30.7
2018-12-27T05:41:28.547Z,30.6
2018-12-27T05:42:18.034Z,30.4
2018-12-27T05:43:08.345Z,30.3
2018-12-27T05:43:58.730Z,30.1
2018-12-27T05:44:48.789Z,29.9
2018-12-27T05:45:38.014Z,29.8
2018-12-27T05:46:28.079Z,29.6
2018-12-27T05:47:19.221Z,29.4
2018-12-27T05:48:09.241Z,29.3
2018-12-27T05:48:59.407Z,29.1
2018-12-27T05:49:48.929Z,28.9
2018-12-27T05:50:39.209Z,28.1
2018-12-27T05:51:28.948Z,27.3
2018-12-27T05:52:18.526Z,26.8
2018-12-27T05:53:08.582Z,26.5
2018-12-27T05:53:58.893Z,26.3
2018-12-27T05:54:49.589Z,26
2018-12-27T05:55:41.581Z,25.9
2018-12-27T05:56:27.698Z,26.2
2018-12-27T05:57:19.531Z,26.4
2018-12-27T05:58:08.368Z,26.8
2018-12-27T05:58:58.736Z,27.1
2018-12-27T05:59:49.648Z,27.3
2018-12-27T06:00:41.142Z,27.6
2018-12-27T06:01:29.146Z,27.9
2018-12-27T06:02:18.878Z,28.1
2018-12-27T06:03:10.111Z,28.4
2018-12-27T06:03:59.783Z,28.6
2018-12-27T06:04:49.073Z,28.8
2018-12-27T06:05:39.166Z,28.9
2018-12-27T06:06:30.296Z,29.1
2018-12-27T06:07:20.323Z,29.3
2018-12-27T06:08:09.611Z,29.4
2018-12-27T06:09:00.765Z,29.6
2018-12-27T06:09:49.954Z,29.7
2018-12-27T06:10:40.283Z,29.8
2018-12-27T06:11:30.030Z,29.9
2018-12-27T06:12:20.687Z,30.1
2018-12-27T06:13:10.490Z,30.2
2018-12-27T06:14:00.529Z,30.3
2018-12-27T06:14:49.138Z,30.4
2018-12-27T06:15:40.642Z,30.5
2018-12-27T06:16:30.189Z,30.6
2018-12-27T06:17:19.617Z,30.7
2018-12-27T06:18:11.068Z,30.6
2018-12-27T06:19:00.290Z,30.4
2018-12-27T06:19:50.945Z,30.3
2018-12-27T06:20:39.822Z,30.1
2018-12-27T06:21:30.180Z,30
2018-12-27T06:22:20.287Z,29.8
2018-12-27T06:23:10.915Z,29.7
2018-12-27T06:24:02.003Z,29.5
2018-12-27T06:24:51.767Z,29.3
2018-12-27T06:25:41.372Z,29.2
2018-12-27T06:26:32.177Z,29
2018-12-27T06:28:10.332Z,27.2
2018-12-27T06:29:01.793Z,26.8
2018-12-27T06:29:51.437Z,26.5
2018-12-27T06:30:42.494Z,26.3
2018-12-27T06:31:30.636Z,26.1
2018-12-27T06:32:22.383Z,26.1
2018-12-27T06:33:12.130Z,26.3
2018-12-27T06:34:01.464Z,26.5
2018-12-27T06:34:52.199Z,26.8
2018-12-27T06:35:41.287Z,27.1
2018-12-27T06:36:31.036Z,27.4
2018-12-27T06:37:22.894Z,27.6
2018-12-27T06:38:12.427Z,27.9
2018-12-27T06:39:02.841Z,28.2
2018-12-27T06:39:52.546Z,28.4
2018-12-27T06:40:42.267Z,28.6
2018-12-27T06:41:32.929Z,28.9
2018-12-27T06:42:22.841Z,29
2018-12-27T06:43:11.381Z,29.2
2018-12-27T06:44:02.606Z,29.3
2018-12-27T06:44:52.343Z,29.4
2018-12-27T06:45:42.958Z,29.6
2018-12-27T06:46:32.761Z,29.8
2018-12-27T06:47:22.791Z,29.9
2018-12-27T06:48:13.080Z,29.9
2018-12-27T06:49:04.749Z,30.1
2018-12-27T06:49:52.087Z,30.3
2018-12-27T06:50:42.949Z,30.3
2018-12-27T06:51:32.343Z,30.4
2018-12-27T06:52:23.023Z,30.5
2018-12-27T06:53:13.254Z,30.6
2018-12-27T06:54:03.016Z,30.7
2018-12-27T06:54:54.208Z,30.6
2018-12-27T06:55:43.660Z,30.4
2018-12-27T06:56:33.654Z,30.3
2018-12-27T06:57:23.980Z,30.1
2018-12-27T06:58:12.928Z,29.9
2018-12-27T06:59:03.830Z,29.8
2018-12-27T06:59:52.900Z,29.6
2018-12-27T07:00:43.353Z,29.4
2018-12-27T07:01:34.055Z,29.3
2018-12-27T07:02:23.218Z,29.1
2018-12-27T07:03:14.107Z,28.6
2018-12-27T07:04:03.875Z,27.5
2018-12-27T07:04:57.785Z,27
2018-12-27T07:05:44.282Z,26.6
2018-12-27T07:06:34.423Z,26.4
2018-12-27T07:07:22.332Z,26.3
2018-12-27T07:08:14.508Z,26
2018-12-27T07:09:04.263Z,26.1
2018-12-27T07:09:53.479Z,26.3
2018-12-27T07:10:44.041Z,26.6
2018-12-27T07:11:33.613Z,26.9
2018-12-27T07:12:24.033Z,27.2
2018-12-27T07:13:14.331Z,27.5
2018-12-27T07:14:04.641Z,27.8
2018-12-27T07:14:54.046Z,28
2018-12-27T07:15:44.846Z,28.3
2018-12-27T07:16:34.183Z,28.2
2018-12-27T07:17:24.293Z,28.1
2018-12-27T07:18:13.821Z,27.3
2018-12-27T07:19:07.249Z,26.7
2018-12-27T07:19:55.051Z,26.4
2018-12-27T07:20:46.485Z,26.6
2018-12-27T07:21:34.795Z,26.9
2018-12-27T07:22:25.145Z,27.2
2018-12-27T07:23:15.781Z,27.4
2018-12-27T07:24:05.252Z,27.7
2018-12-27T07:24:54.303Z,27.9
2018-12-27T07:25:46.281Z,28.1
2018-12-27T07:26:34.847Z,28.3
2018-12-27T07:27:24.442Z,28.6
2018-12-27T07:28:15.542Z,28.8
2018-12-27T07:29:06.455Z,28.9
2018-12-27T07:29:54.540Z,29.1
2018-12-27T07:30:46.300Z,29.3
2018-12-27T07:31:35.923Z,29.4
2018-12-27T07:32:25.537Z,29.6
2018-12-27T07:33:15.610Z,29.8
2018-12-27T07:34:05.651Z,29.9
2018-12-27T07:35:03.150Z,30
2018-12-27T07:35:46.590Z,30.1
2018-12-27T07:36:35.258Z,30.3
2018-12-27T07:37:26.130Z,30.3
2018-12-27T07:38:16.473Z,30.4
2018-12-27T07:39:06.889Z,30.6
2018-12-27T07:39:57.157Z,30.6
2018-12-27T07:40:46.401Z,30.7
2018-12-27T07:41:36.380Z,30.6
2018-12-27T07:42:26.770Z,30.4
2018-12-27T07:43:16.532Z,30.3
2018-12-27T07:44:06.972Z,30.1
2018-12-27T07:44:56.426Z,29.9
2018-12-27T07:45:46.132Z,29.8
2018-12-27T07:46:36.858Z,29.6
2018-12-27T07:47:25.997Z,29.5
2018-12-27T07:48:17.406Z,29.3
2018-12-27T07:49:06.936Z,29.1
2018-12-27T07:49:56.981Z,28.6
2018-12-27T07:50:47.561Z,27.6
2018-12-27T07:51:37.056Z,26.9
2018-12-27T07:52:28.071Z,26.6
2018-12-27T07:53:17.479Z,26.4
2018-12-27T07:54:08.119Z,26.2
2018-12-27T07:54:57.103Z,26
2018-12-27T07:55:47.388Z,26.1
2018-12-27T07:56:38.216Z,26.3
2018-12-27T07:57:28.133Z,26.6
2018-12-27T07:58:17.006Z,27
2018-12-27T07:59:08.238Z,27.3
2018-12-27T07:59:58.200Z,27.6
2018-12-27T08:01:37.750Z,28.1
2018-12-27T08:02:27.345Z,28.3
2018-12-27T08:03:18.148Z,28.5
2018-12-27T08:04:08.242Z,28.8
2018-12-27T08:05:05.632Z,28.9
2018-12-27T08:05:47.537Z,29.1
2018-12-27T08:06:37.897Z,29.3
2018-12-27T08:07:28.297Z,29.4
2018-12-27T08:08:18.778Z,29.6
2018-12-27T08:09:07.784Z,29.7
2018-12-27T08:09:58.363Z,29.8
2018-12-27T08:10:47.632Z,29.9
2018-12-27T08:11:38.187Z,30.1
2018-12-27T08:12:28.846Z,30.2
2018-12-27T08:13:18.559Z,30.3
2018-12-27T08:14:07.855Z,30.4
2018-12-27T08:14:59.255Z,30.5
2018-12-27T08:15:49.409Z,30.6
2018-12-27T08:16:39.387Z,30.6
2018-12-27T08:17:28.874Z,30.4
2018-12-27T08:18:18.884Z,30.3
2018-12-27T08:19:08.429Z,30.1
2018-12-27T08:19:59.349Z,29.9
2018-12-27T08:20:48.231Z,29.8
2018-12-27T08:21:38.591Z,29.6
2018-12-27T08:22:29.426Z,29.5
2018-12-27T08:23:18.159Z,29.3
2018-12-27T08:24:09.614Z,29.1
2018-12-27T08:24:59.629Z,29
2018-12-27T08:26:40.354Z,27.2
2018-12-27T08:27:29.498Z,26.8
2018-12-27T08:28:18.869Z,26.5
2018-12-27T08:29:09.652Z,26.3
2018-12-27T08:29:59.919Z,26.1
2018-12-27T08:30:49.529Z,26.4
2018-12-27T08:31:40.111Z,26.6
2018-12-27T08:32:29.321Z,27.2
2018-12-27T08:33:19.681Z,27.5
2018-12-27T08:34:09.711Z,27.6
2018-12-27T08:34:59.468Z,27.9
2018-12-27T08:35:48.994Z,28.1
2018-12-27T08:36:40.930Z,28.3
2018-12-27T08:37:30.441Z,28.5
2018-12-27T08:38:19.975Z,28.7
2018-12-27T08:39:10.587Z,28.9
2018-12-27T08:39:59.225Z,29.1
2018-12-27T08:40:49.833Z,29.2
2018-12-27T08:41:39.386Z,29.3
2018-12-27T08:42:30.101Z,29.5
2018-12-27T08:43:21.203Z,29.7
2018-12-27T08:44:10.134Z,29.8
2018-12-27T08:44:59.888Z,29.9
2018-12-27T08:45:50.765Z,30
2018-12-27T08:46:41.325Z,30.1
2018-12-27T08:47:33.430Z,30.3
2018-12-27T08:48:20.345Z,30.4
2018-12-27T08:49:10.963Z,30.5
2018-12-27T08:50:01.185Z,30.6
2018-12-27T08:50:50.312Z,30.6
2018-12-27T08:51:41.203Z,30.6
2018-12-27T08:52:30.216Z,30.5
2018-12-27T08:53:21.140Z,30.1
2018-12-27T08:54:11.020Z,29.1
2018-12-27T08:55:01.076Z,28.6
2018-12-27T08:55:50.921Z,28.6
2018-12-27T08:56:41.737Z,28.5
2018-12-27T08:57:32.382Z,28.6
2018-12-27T08:58:21.025Z,28.9
2018-12-27T08:59:12.177Z,29
2018-12-27T09:00:01.442Z,29.1
2018-12-27T09:00:50.882Z,29.3
2018-12-27T09:16:38.243Z,29.4
2018-12-27T09:17:29.201Z,29.2
2018-12-27T09:18:18.443Z,28.7
2018-12-27T09:19:09.828Z,27.6
2018-12-27T09:19:59.300Z,27.1
2018-12-27T09:20:49.121Z,26.8
2018-12-27T09:21:38.138Z,26.5
2018-12-27T09:22:27.936Z,26.3
2018-12-27T09:23:19.565Z,26.2
2018-12-27T09:24:09.070Z,26.4
2018-12-27T09:24:58.775Z,26.6
2018-12-27T09:25:51.938Z,27.1
2018-12-27T09:26:39.430Z,27.6
2018-12-27T09:27:30.106Z,27.6
2018-12-27T09:28:19.313Z,27.9
2018-12-27T09:29:09.972Z,28.1
2018-12-27T09:29:59.669Z,28.3
2018-12-27T09:30:48.544Z,28.5
2018-12-27T09:31:41.247Z,28.7
2018-12-27T09:32:30.434Z,28.9
2018-12-27T09:33:19.916Z,29.1
2018-12-27T09:34:09.745Z,29.3
2018-12-27T09:34:59.057Z,29.4
2018-12-27T09:35:49.604Z,29.6
2018-12-27T09:36:40.709Z,29.7
2018-12-27T09:37:29.951Z,29.8
2018-12-27T09:38:20.496Z,29.9
2018-12-27T09:39:11.160Z,30.1
2018-12-27T09:40:00.173Z,30.1
2018-12-27T09:40:50.479Z,30.3
2018-12-27T09:41:40.839Z,30.4
2018-12-27T09:42:31.756Z,30.5
2018-12-27T09:43:20.441Z,30.6
2018-12-27T09:44:11.013Z,30.7
2018-12-27T09:45:01.802Z,30.6
2018-12-27T09:45:50.281Z,30.4
2018-12-27T09:46:39.504Z,30.3
2018-12-27T09:47:30.855Z,30.1
2018-12-27T09:48:20.950Z,29.9
2018-12-27T09:49:10.205Z,29.8
2018-12-27T09:50:01.351Z,29.6
2018-12-27T09:50:50.966Z,29.4
2018-12-27T09:51:41.223Z,29.3
2018-12-27T09:52:31.628Z,29.2
2018-12-27T09:53:21.306Z,29
2018-12-27T09:54:10.537Z,27.9
2018-12-27T09:55:00.773Z,27.2
2018-12-27T09:55:51.630Z,26.8
2018-12-27T09:56:41.650Z,26.5
2018-12-27T09:57:31.313Z,26.3
2018-12-27T09:58:21.430Z,26.2
2018-12-27T09:59:10.900Z,26.3
2018-12-27T10:00:01.210Z,26.6
2018-12-27T10:00:51.175Z,27
2018-12-27T10:01:41.554Z,27.5
2018-12-27T10:02:30.826Z,27.6
2018-12-27T10:03:20.757Z,27.8
2018-12-27T10:04:11.592Z,28
2018-12-27T10:05:00.650Z,28.2
2018-12-27T10:05:51.682Z,28.4
2018-12-27T10:06:42.567Z,28.6
2018-12-27T10:07:31.699Z,28.8
2018-12-27T10:08:20.202Z,29
2018-12-27T10:09:10.834Z,29.2
2018-12-27T10:10:02.757Z,29.3
2018-12-27T10:10:52.518Z,29.4
2018-12-27T10:11:42.889Z,29.6
2018-12-27T10:12:32.602Z,29.8
2018-12-27T10:13:22.892Z,29.9
2018-12-27T10:14:13.002Z,30
2018-12-27T10:15:03.222Z,30.1
2018-12-27T10:15:52.579Z,30.3
2018-12-27T10:16:43.384Z,30.3
2018-12-27T10:17:33.161Z,30.4
2018-12-27T10:18:22.992Z,30.5
2018-12-27T10:19:12.726Z,30.6
2018-12-27T10:20:02.997Z,30.6
2018-12-27T10:20:53.477Z,30.5
2018-12-27T10:21:43.731Z,30.4
2018-12-27T10:22:33.361Z,30.2
2018-12-27T10:23:23.806Z,30
2018-12-27T10:24:12.594Z,29.9
2018-12-27T10:25:03.719Z,29.7
2018-12-27T10:25:53.471Z,29.6
2018-12-27T10:26:42.438Z,29.4
2018-12-27T10:27:34.136Z,29.3
2018-12-27T10:28:24.036Z,29.1
2018-12-27T10:29:14.031Z,28.2
2018-12-27T10:30:03.161Z,27.4
2018-12-27T10:31:01.321Z,26.9
2018-12-27T10:31:43.987Z,26.6
2018-12-27T10:32:33.634Z,26.4
2018-12-27T10:33:24.283Z,26.1
2018-12-27T10:34:14.563Z,26.2
2018-12-27T10:35:04.423Z,26.4
2018-12-27T10:35:55.515Z,26.9
2018-12-27T10:36:46.936Z,27.5
2018-12-27T10:37:34.518Z,27.6
2018-12-27T10:38:25.111Z,27.7
2018-12-27T10:39:13.328Z,27.9
2018-12-27T10:40:04.695Z,28.1
2018-12-27T10:40:54.740Z,28.3
2018-12-27T10:41:45.086Z,28.6
2018-12-27T10:42:34.295Z,28.7
2018-12-27T10:43:24.865Z,28.9
2018-12-27T10:44:15.238Z,28.8
2018-12-27T10:45:04.775Z,27.9
2018-12-27T10:45:54.818Z,26.9
2018-12-27T10:46:44.953Z,26.3
2018-12-27T10:47:35.043Z,26.1
2018-12-27T10:48:24.975Z,26.4
2018-12-27T10:49:15.870Z,27.1
2018-12-27T10:50:04.942Z,27.4
2018-12-27T10:50:55.165Z,27.6
2018-12-27T10:52:35.983Z,28.1
2018-12-27T10:53:25.392Z,28.2
2018-12-27T10:54:15.928Z,28.4
2018-12-27T10:55:05.718Z,28.7
2018-12-27T10:55:55.485Z,28.9
2018-12-27T10:56:46.162Z,29.1
2018-12-27T10:57:38.875Z,29.2
2018-12-27T10:58:24.837Z,29.4
2018-12-27T10:59:16.417Z,29.6
2018-12-27T11:00:06.639Z,29.7
2018-12-27T11:00:55.370Z,29.8
2018-12-27T11:01:46.426Z,29.9
2018-12-27T11:02:35.947Z,30.1
2018-12-27T11:03:34.061Z,30.2
2018-12-27T11:04:16.999Z,30.3
2018-12-27T11:05:07.011Z,30.4
2018-12-27T11:05:56.641Z,30.5
2018-12-27T11:06:46.846Z,30.6
2018-12-27T11:07:37.113Z,30.6
2018-12-27T11:08:25.749Z,30.6
2018-12-27T11:09:15.324Z,30.4
2018-12-27T11:10:07.427Z,30.3
2018-12-27T11:10:55.436Z,30.1
2018-12-27T11:11:46.241Z,29.9
2018-12-27T11:12:36.887Z,29.8
2018-12-27T11:13:26.679Z,29.6
2018-12-27T11:14:16.769Z,29.4
2018-12-27T11:15:07.393Z,29.3
2018-12-27T11:15:57.075Z,29.1
2018-12-27T11:16:46.888Z,28.8
2018-12-27T11:17:37.485Z,27.6
2018-12-27T11:18:29.011Z,27
2018-12-27T11:19:17.169Z,26.6
2018-12-27T11:20:07.207Z,26.4
2018-12-27T11:20:57.485Z,26.2
2018-12-27T11:21:48.100Z,26.1
2018-12-27T11:22:38.407Z,26.4
2018-12-27T11:23:27.629Z,26.6
2018-12-27T11:24:17.402Z,26.7
2018-12-27T11:25:07.512Z,27
2018-12-27T11:25:57.544Z,27.3
2018-12-27T11:26:48.929Z,27.6
2018-12-27T11:28:27.662Z,28.1
2018-12-27T11:29:17.738Z,28.3
2018-12-27T11:30:08.136Z,28.6
2018-12-27T11:30:58.830Z,28.8
2018-12-27T11:31:48.741Z,28.9
2018-12-27T11:32:38.549Z,29.1
2018-12-27T11:33:27.784Z,29.3
2018-12-27T11:34:17.877Z,29.4
2018-12-27T11:35:09.031Z,29.5
2018-12-27T11:36:05.241Z,29.7
2018-12-27T11:36:47.939Z,29.8
2018-12-27T11:37:38.643Z,29.9
2018-12-27T11:38:28.616Z,30.1
2018-12-27T11:39:17.541Z,30.1
2018-12-27T11:40:07.661Z,30.3
2018-12-27T11:40:58.741Z,30.4
2018-12-27T11:41:48.581Z,30.5
2018-12-27T11:42:38.361Z,30.6
2018-12-27T11:43:28.689Z,30.6
2018-12-27T11:44:18.160Z,30.4
2018-12-27T11:45:08.810Z,30.3
2018-12-27T11:45:59.675Z,30.1
2018-12-27T11:46:48.366Z,29.9
2018-12-27T11:47:39.330Z,29.8
2018-12-27T11:48:28.494Z,29.6
2018-12-27T11:49:19.071Z,29.4
2018-12-27T11:50:42.575Z,29.2
2018-12-27T11:51:32.451Z,29.1
2018-12-27T11:52:23.745Z,28.3
2018-12-27T11:53:13.022Z,27.4
2018-12-27T11:54:02.802Z,26.9
2018-12-27T11:54:53.207Z,26.6
2018-12-27T11:55:43.470Z,26.3
2018-12-27T11:56:32.785Z,26.2
2018-12-27T11:57:22.467Z,26.1
2018-12-27T11:58:14.165Z,25.9
2018-12-27T11:59:02.892Z,25.7
2018-12-27T11:59:52.942Z,25.5
2018-12-27T12:00:43.529Z,25.6
2018-12-27T12:01:34.142Z,25.9
2018-12-27T12:02:30.853Z,26.3
2018-12-27T12:03:12.714Z,26.6
2018-12-27T12:04:03.468Z,26.9
2018-12-27T12:04:54.049Z,27.2